1871 NOT_NAMED (1871001S16421)


IBTrACS version v04r00. Visit IBTrACS website for data access.
Please direct all questions to the IBTrACS Q and A forum

Storm track - Intensity - Wind Radii - Intensity Data - Source Data - All data

Summary Information

Storm ID 1871001S16421
Start Jan 1 06Z
End Jan 7 06Z
ATCF IDs
Track status Best track data.
Spur track This storm is a spur track associated with the main storm: 1871001S16061

Storm track plot

Map of storm track

Intensity plots

No Intensity information for this storm


Radial wind information

No radial wind information for this storm


Position and Intensity Table

BASIN ISO_TIME_________ NATURE LAT LON
degrees north degrees east
SI 1871-01-01 06:00:00 NR -16.40 60.80
SI 09:00:00 NR -16.79 60.04
SI 12:00:00 NR -17.17 59.31
SI 15:00:00 NR -17.54 58.62
SI 18:00:00 NR -17.90 58.00
SI 21:00:00 NR -18.24 57.47
SI 1871-01-02 00:00:00 NR -18.56 57.01
SI 03:00:00 NR -18.88 56.63
SI 06:00:00 NR -19.20 56.30
SI 09:00:00 NR -19.52 55.99
SI 12:00:00 NR -19.83 55.72
SI 15:00:00 NR -20.16 55.50
SI 18:00:00 NR -20.50 55.30
SI 21:00:00 NR -20.86 55.08
SI 1871-01-03 00:00:00 NR -21.23 54.88
SI 03:00:00 NR -21.62 54.72
SI 06:00:00 NR -22.00 54.60
SI 09:00:00 NR -22.38 54.52
SI 12:00:00 NR -22.76 54.49
SI 15:00:00 NR -23.13 54.49
SI 18:00:00 NR -23.50 54.50
SI 21:00:00 NR -23.87 54.50
SI 1871-01-04 00:00:00 NR -24.23 54.52
SI 03:00:00 NR -24.58 54.55
SI 06:00:00 NR -24.90 54.60
SI 09:00:00 NR -25.20 54.66
SI 12:00:00 NR -25.48 54.73
SI 15:00:00 NR -25.74 54.82
SI 18:00:00 NR -26.00 54.90
SI 21:00:00 NR -26.24 54.96
SI 1871-01-05 00:00:00 NR -26.48 55.01
SI 03:00:00 NR -26.73 55.09
SI 06:00:00 NR -27.00 55.20
SI 09:00:00 NR -27.34 55.38
SI 12:00:00 NR -27.71 55.58
SI 15:00:00 NR -28.07 55.80
SI 18:00:00 NR -28.40 56.00
SI 21:00:00 NR -28.66 56.15
SI 1871-01-06 00:00:00 NR -28.89 56.27
SI 03:00:00 NR -29.10 56.39
SI 06:00:00 NR -29.30 56.50
SI 09:00:00 NR -29.52 56.63
SI 12:00:00 NR -29.72 56.75
SI 15:00:00 NR -29.92 56.88
SI 18:00:00 NR -30.10 57.00
SI 21:00:00 NR -30.27 57.12
SI 1871-01-07 00:00:00 NR -30.42 57.25
SI 03:00:00 NR -30.56 57.37
SI 06:00:00 NR -30.70 57.50

Source Information

Agency Information
USA
TOKYO
CMA
HKO
NEWDELHI
REUNION
BOM
NADI
WELLINGTON
DS824
TD9636 cons_worldwide_trop_cyclone_18710101-19891231-005:Line=1155
TD9635
NEUMANN
MLC

All available IBTrACS Data

SEASON BASIN SUBBASIN ISO_TIME_________ NATURE LAT LON DIST2LAND LANDFALL IFLAG USA SSHS TD9636 LAT TD9636 LON TD9636 STAGE STORM SPEED STORM DIR
Year degrees north degrees east km km 1 degrees north degrees east kts degrees
1871 SI MM 1871-01-01 06:00:00 NR -16.40 60.80 527 447 __________O___ -1 -16.40 60.80 7 16 242
1871 SI MM 09:00:00 NR -16.79 60.04 441 365 __________P___ -1 -16.79 60.04 7 16 242
1871 SI MM 12:00:00 NR -17.17 59.31 365 309 __________P___ -1 -17.17 59.31 7 16 241
1871 SI MM 15:00:00 NR -17.54 58.62 305 248 __________P___ -1 -17.54 58.62 7 14 240
1871 SI MM 18:00:00 NR -17.90 58.00 248 212 __________O___ -1 -17.90 58.00 7 13 238
1871 SI MM 21:00:00 NR -18.24 57.47 212 181 __________P___ -1 -18.24 57.47 7 12 235
1871 SI MM 1871-01-02 00:00:00 NR -18.56 57.01 175 162 __________P___ -1 -18.56 57.01 7 10 231
1871 SI MM 03:00:00 NR -18.88 56.63 164 155 __________P___ -1 -18.88 56.63 7 9 227
1871 SI MM 06:00:00 NR -19.20 56.30 161 161 __________O___ -1 -19.20 56.30 7 9 224
1871 SI MM 09:00:00 NR -19.52 55.99 170 134 __________P___ -1 -19.52 55.99 7 8 221
1871 SI MM 12:00:00 NR -19.83 55.72 134 100 __________P___ -1 -19.83 55.72 7 8 215
1871 SI MM 15:00:00 NR -20.16 55.50 89 55 __________P___ -1 -20.16 55.50 7 8 211
1871 SI MM 18:00:00 NR -20.50 55.30 55 30 __________O___ -1 -20.50 55.30 7 8 209
1871 SI MM 21:00:00 NR -20.86 55.08 23 20 __________P___ -1 -20.86 55.08 7 8 208
1871 SI MM 1871-01-03 00:00:00 NR -21.23 54.88 33 33 __________P___ -1 -21.23 54.88 7 8 204
1871 SI MM 03:00:00 NR -21.62 54.72 70 70 __________P___ -1 -21.62 54.72 7 8 199
1871 SI MM 06:00:00 NR -22.00 54.60 106 106 __________O___ -1 -22.00 54.60 7 8 193
1871 SI MM 09:00:00 NR -22.38 54.52 148 148 __________P___ -1 -22.38 54.52 7 8 188
1871 SI MM 12:00:00 NR -22.76 54.49 186 186 __________P___ -1 -22.76 54.49 7 8 182
1871 SI MM 15:00:00 NR -23.13 54.49 217 217 __________P___ -1 -23.13 54.49 7 7 0
1871 SI MM 18:00:00 NR -23.50 54.50 259 259 __________O___ -1 -23.50 54.50 7 7 0
1871 SI MM 21:00:00 NR -23.87 54.50 301 301 __________P___ -1 -23.87 54.50 7 7 0
1871 SI MM 1871-01-04 00:00:00 NR -24.23 54.52 332 332 __________P___ -1 -24.23 54.52 7 7 176
1871 SI MM 03:00:00 NR -24.58 54.55 372 372 __________P___ -1 -24.58 54.55 7 7 174
1871 SI MM 06:00:00 NR -24.90 54.60 404 404 __________O___ -1 -24.90 54.60 7 6 171
1871 SI MM 09:00:00 NR -25.20 54.66 434 434 __________P___ -1 -25.20 54.66 7 6 168
1871 SI MM 12:00:00 NR -25.48 54.73 467 465 __________P___ -1 -25.48 54.73 7 6 165
1871 SI MM 15:00:00 NR -25.74 54.82 487 487 __________P___ -1 -25.74 54.82 7 5 164
1871 SI MM 18:00:00 NR -26.00 54.90 519 519 __________O___ -1 -26.00 54.90 7 5 166
1871 SI MM 21:00:00 NR -26.24 54.96 539 539 __________P___ -1 -26.24 54.96 7 5 167
1871 SI MM 1871-01-05 00:00:00 NR -26.48 55.01 573 573 __________P___ -1 -26.48 55.01 7 5 166
1871 SI MM 03:00:00 NR -26.73 55.09 594 594 __________P___ -1 -26.73 55.09 7 6 162
1871 SI MM 06:00:00 NR -27.00 55.20 627 627 __________O___ -1 -27.00 55.20 7 7 158
1871 SI MM 09:00:00 NR -27.34 55.38 659 659 __________P___ -1 -27.34 55.38 7 8 154
1871 SI MM 12:00:00 NR -27.71 55.58 703 703 __________P___ -1 -27.71 55.58 7 8 153
1871 SI MM 15:00:00 NR -28.07 55.80 748 748 __________P___ -1 -28.07 55.80 7 8 152
1871 SI MM 18:00:00 NR -28.40 56.00 783 783 __________O___ -1 -28.40 56.00 7 7 153
1871 SI MM 21:00:00 NR -28.66 56.15 817 817 __________P___ -1 -28.66 56.15 7 6 154
1871 SI MM 1871-01-06 00:00:00 NR -28.89 56.27 840 840 __________P___ -1 -28.89 56.27 7 5 155
1871 SI MM 03:00:00 NR -29.10 56.39 864 864 __________P___ -1 -29.10 56.39 7 5 154
1871 SI MM 06:00:00 NR -29.30 56.50 887 887 __________O___ -1 -29.30 56.50 7 5 153
1871 SI MM 09:00:00 NR -29.52 56.63 910 910 __________P___ -1 -29.52 56.63 7 5 153
1871 SI MM 12:00:00 NR -29.72 56.75 934 934 __________P___ -1 -29.72 56.75 7 5 152
1871 SI MM 15:00:00 NR -29.92 56.88 958 958 __________P___ -1 -29.92 56.88 7 4 150
1871 SI MM 18:00:00 NR -30.10 57.00 981 981 __________O___ -1 -30.10 57.00 7 4 148
1871 SI MM 21:00:00 NR -30.27 57.12 1005 1005 __________P___ -1 -30.27 57.12 7 4 146
1871 SI MM 1871-01-07 00:00:00 NR -30.42 57.25 1017 1017 __________P___ -1 -30.42 57.25 7 4 144
1871 SI MM 03:00:00 NR -30.56 57.37 1043 1043 __________P___ -1 -30.56 57.37 7 4 142
1871 SI MM 06:00:00 NR -30.70 57.50 1055 __________O___ -1 -30.70 57.50 7 4 144